createdAt,value
2023-02-19T07:32:36.380Z,9.34
2023-02-19T07:35:02.931Z,9.43
2023-02-19T07:37:29.432Z,9.47
2023-02-19T07:39:56.007Z,9.47
2023-02-19T07:42:22.519Z,9.39
2023-02-19T07:45:06.875Z,9.41
2023-02-19T07:47:33.380Z,9.40
2023-02-19T07:49:59.908Z,9.47
2023-02-19T07:52:26.956Z,9.48
2023-02-19T07:54:53.472Z,9.39
2023-02-19T07:57:19.986Z,9.41
2023-02-19T07:59:46.528Z,9.40
2023-02-19T08:02:38.092Z,9.54
2023-02-19T08:05:05.856Z,9.54
2023-02-19T08:07:34.412Z,9.54
2023-02-19T08:10:21.795Z,9.47
2023-02-19T08:13:20.104Z,9.39
2023-02-19T08:15:47.215Z,9.39
2023-02-19T08:18:15.286Z,9.41
2023-02-19T08:20:42.941Z,9.36
2023-02-19T08:23:10.385Z,9.34
2023-02-19T08:25:36.952Z,9.27
2023-02-19T08:28:04.028Z,9.23
2023-02-19T08:30:33.070Z,9.34
2023-02-19T08:33:02.272Z,9.30
2023-02-19T08:35:29.489Z,9.30
2023-02-19T08:37:59.460Z,9.30
2023-02-19T08:40:26.558Z,9.31
2023-02-19T08:42:53.492Z,9.27
2023-02-19T08:45:20.464Z,9.33
2023-02-19T08:47:47.192Z,9.29
2023-02-19T08:50:13.864Z,9.40
2023-02-19T08:52:40.445Z,9.48
2023-02-19T08:55:07.387Z,9.50
2023-02-19T08:57:37.624Z,9.50
2023-02-19T09:00:06.275Z,9.47
2023-02-19T09:02:33.229Z,9.57
2023-02-19T09:04:59.802Z,9.65
2023-02-19T09:07:26.535Z,9.58
2023-02-19T09:09:53.139Z,9.61
2023-02-19T09:12:19.971Z,9.73
2023-02-19T09:14:46.751Z,9.79
2023-02-19T09:17:13.316Z,9.79
2023-02-19T09:19:39.890Z,9.97
2023-02-19T09:22:06.737Z,10.09
2023-02-19T09:24:33.355Z,10.19
2023-02-19T09:26:59.919Z,10.19
2023-02-19T09:29:28.226Z,10.22
2023-02-19T09:31:59.220Z,10.32
2023-02-19T09:34:27.836Z,10.25
2023-02-19T09:36:55.426Z,10.16
2023-02-19T09:39:21.948Z,10.15
2023-02-19T09:41:59.088Z,10.08
2023-02-19T09:44:28.544Z,10.18
2023-02-19T09:46:56.131Z,10.36
2023-02-19T09:49:50.235Z,10.50
2023-02-19T09:52:24.915Z,10.93
2023-02-19T09:54:57.625Z,10.93
2023-02-19T09:57:25.920Z,10.97
2023-02-19T10:00:00.326Z,11.25
2023-02-19T10:02:27.777Z,11.00
2023-02-19T10:04:54.584Z,10.84
2023-02-19T10:07:43.933Z,10.73
2023-02-19T10:10:13.582Z,10.61
2023-02-19T10:12:50.556Z,10.78
2023-02-19T10:15:18.871Z,11.66
2023-02-19T10:17:45.469Z,12.03
2023-02-19T10:20:18.511Z,11.89
2023-02-19T10:22:45.647Z,12.30
2023-02-19T10:25:16.788Z,12.30
2023-02-19T10:27:44.186Z,11.74
2023-02-19T10:30:22.098Z,11.15
2023-02-19T10:33:00.329Z,10.90
2023-02-19T10:35:27.108Z,10.80
2023-02-19T10:37:53.911Z,10.81
2023-02-19T10:40:23.461Z,10.83
2023-02-19T10:43:02.821Z,10.57
2023-02-19T10:45:40.839Z,10.56
2023-02-19T10:48:37.491Z,10.67
2023-02-19T10:51:11.497Z,10.57
2023-02-19T10:53:41.063Z,10.50
2023-02-19T10:56:25.779Z,10.46
2023-02-19T10:58:52.467Z,10.36
2023-02-19T11:01:24.062Z,10.30
2023-02-19T11:03:53.191Z,10.37
2023-02-19T11:06:25.868Z,10.36
2023-02-19T11:08:55.165Z,10.39
2023-02-19T11:11:36.671Z,10.30
2023-02-19T11:14:15.754Z,10.15
2023-02-19T11:16:46.496Z,10.18
2023-02-19T11:19:25.728Z,10.22
2023-02-19T11:21:52.982Z,10.26
2023-02-19T11:24:31.063Z,10.29
2023-02-19T11:26:58.539Z,10.32
2023-02-19T11:29:28.621Z,10.36
2023-02-19T11:31:56.386Z,10.30
2023-02-19T11:34:31.158Z,10.22
2023-02-19T11:37:18.588Z,10.18
2023-02-19T11:39:48.008Z,10.06
2023-02-19T11:42:44.638Z,10.05
2023-02-19T11:45:36.755Z,10.06
2023-02-19T11:48:31.450Z,10.03
2023-02-19T11:51:07.004Z,10.08
2023-02-19T11:53:37.274Z,10.08
2023-02-19T11:56:40.851Z,10.15
2023-02-19T11:59:27.644Z,10.08
2023-02-19T12:02:19.896Z,9.97
2023-02-19T12:05:13.127Z,10.01
2023-02-19T12:07:57.942Z,9.89
2023-02-19T12:10:53.560Z,9.70
2023-02-19T12:13:44.939Z,9.78
2023-02-19T12:16:33.440Z,9.89
2023-02-19T12:19:00.038Z,9.95
2023-02-19T12:21:39.128Z,9.94
2023-02-19T12:24:16.882Z,10.08
2023-02-19T12:26:52.359Z,10.01
2023-02-19T12:29:31.150Z,10.16
2023-02-19T12:32:23.326Z,10.09
2023-02-19T12:35:11.284Z,9.98
2023-02-19T12:38:00.930Z,10.26
2023-02-19T12:41:01.471Z,10.60
2023-02-19T12:43:31.002Z,10.78
2023-02-19T12:46:20.604Z,10.64
2023-02-19T12:48:57.144Z,10.57
2023-02-19T12:51:57.134Z,10.63
2023-02-19T12:54:28.102Z,10.49
2023-02-19T12:56:54.658Z,10.56
2023-02-19T12:59:35.277Z,10.61
2023-02-19T13:02:22.804Z,10.61
2023-02-19T13:04:59.251Z,10.59
2023-02-19T13:07:45.578Z,10.46
2023-02-19T13:10:36.909Z,10.64
2023-02-19T13:13:12.663Z,10.46
2023-02-19T13:15:45.398Z,10.36
2023-02-19T13:18:41.655Z,10.23
2023-02-19T13:21:09.288Z,10.08
2023-02-19T13:23:56.926Z,10.15
2023-02-19T13:26:26.181Z,10.09
2023-02-19T13:29:10.721Z,9.82
2023-02-19T13:31:56.146Z,9.71
2023-02-19T13:34:44.681Z,9.62
2023-02-19T13:37:11.943Z,9.68
2023-02-19T13:39:48.766Z,9.82
2023-02-19T13:42:27.661Z,9.89
2023-02-19T13:44:57.989Z,10.02
2023-02-19T13:47:57.395Z,10.01
2023-02-19T13:50:27.718Z,9.78
2023-02-19T13:52:56.397Z,9.65
2023-02-19T13:55:46.866Z,9.74
2023-02-19T13:58:50.822Z,9.74
2023-02-19T14:01:51.739Z,9.62
2023-02-19T14:04:26.532Z,9.61
2023-02-19T14:07:24.363Z,9.43
2023-02-19T14:09:50.999Z,9.40
2023-02-19T14:12:17.527Z,9.39
2023-02-19T14:14:54.064Z,9.54
2023-02-19T14:17:35.579Z,9.50
2023-02-19T14:20:23.405Z,9.34
2023-02-19T14:23:01.569Z,9.37
2023-02-19T14:25:30.750Z,9.47
2023-02-19T14:28:06.579Z,9.55
2023-02-19T14:30:35.115Z,9.50
2023-02-19T14:33:10.559Z,9.55
2023-02-19T14:35:41.351Z,9.60
2023-02-19T14:38:22.478Z,9.70
2023-02-19T14:40:50.254Z,9.78
2023-02-19T14:43:20.042Z,9.89
2023-02-19T14:45:54.650Z,9.77
2023-02-19T14:48:27.085Z,9.71
2023-02-19T14:51:00.786Z,9.78
2023-02-19T14:53:29.562Z,9.67
2023-02-19T14:55:58.778Z,9.50
2023-02-19T14:58:31.947Z,9.65
2023-02-19T15:00:58.902Z,9.41
2023-02-19T15:03:27.176Z,9.31
2023-02-19T15:06:01.337Z,9.23
2023-02-19T15:08:34.185Z,9.16
2023-02-19T15:11:02.456Z,8.99
2023-02-19T15:13:30.846Z,9.10
2023-02-19T15:15:58.210Z,9.03
2023-02-19T15:18:26.372Z,9.18
2023-02-19T15:21:03.177Z,9.09
2023-02-19T15:23:32.662Z,9.12
2023-02-19T15:26:00.409Z,9.19
2023-02-19T15:28:32.672Z,9.10
2023-02-19T15:30:59.264Z,9.22
2023-02-19T15:33:28.345Z,9.19
2023-02-19T15:36:05.527Z,9.19
2023-02-19T15:38:33.506Z,9.13
2023-02-19T15:41:00.477Z,9.01
2023-02-19T15:43:40.122Z,8.98
2023-02-19T15:46:16.036Z,9.03
2023-02-19T15:49:01.625Z,8.93
2023-02-19T15:51:44.291Z,8.96
2023-02-19T15:54:26.991Z,8.93
2023-02-19T15:56:57.625Z,8.96
2023-02-19T15:59:30.159Z,8.95
2023-02-19T16:01:57.023Z,8.93
2023-02-19T16:04:23.934Z,8.96
2023-02-19T16:06:52.593Z,8.88
2023-02-19T16:09:21.910Z,8.73
2023-02-19T16:11:52.297Z,8.75
2023-02-19T16:14:27.891Z,8.76
2023-02-19T16:16:57.987Z,8.71
2023-02-19T16:19:29.322Z,8.65
2023-02-19T16:21:56.785Z,8.65
2023-02-19T16:24:31.188Z,8.73
2023-02-19T16:26:58.924Z,8.60
2023-02-19T16:29:30.699Z,8.69
2023-02-19T16:32:03.967Z,8.72
2023-02-19T16:35:00.425Z,8.61
2023-02-19T16:37:37.565Z,8.71
2023-02-19T16:40:14.040Z,8.54
2023-02-19T16:42:44.770Z,8.52
2023-02-19T16:45:11.327Z,8.54
2023-02-19T16:47:41.291Z,8.47
2023-02-19T16:50:14.746Z,8.58
2023-02-19T16:52:59.074Z,8.51
2023-02-19T16:55:26.886Z,8.64
2023-02-19T16:57:53.644Z,8.43
2023-02-19T17:00:25.978Z,8.43
2023-02-19T17:02:55.400Z,8.44
2023-02-19T17:05:23.562Z,8.33
2023-02-19T17:07:50.213Z,8.31
2023-02-19T17:10:24.886Z,8.27
2023-02-19T17:12:52.670Z,8.24
2023-02-19T17:15:19.285Z,8.22
2023-02-19T17:17:45.980Z,8.19
2023-02-19T17:20:27.467Z,8.22
2023-02-19T17:22:55.225Z,8.13
2023-02-19T17:25:22.045Z,8.13
2023-02-19T17:27:48.609Z,8.03
2023-02-19T17:30:34.001Z,7.96
2023-02-19T17:33:00.627Z,7.74
2023-02-19T17:35:27.166Z,7.68
2023-02-19T17:37:53.803Z,7.59
2023-02-19T17:40:33.549Z,7.45
2023-02-19T17:43:00.883Z,7.41
2023-02-19T17:45:27.788Z,7.38
2023-02-19T17:47:54.421Z,7.24
2023-02-19T17:50:24.256Z,7.24
2023-02-19T17:52:50.810Z,7.18
2023-02-19T17:55:18.502Z,7.08
2023-02-19T17:57:46.229Z,7.14
2023-02-19T18:00:26.320Z,7.06
2023-02-19T18:02:53.023Z,7.00
2023-02-19T18:05:20.104Z,7.04
2023-02-19T18:07:47.598Z,6.93
2023-02-19T18:10:16.345Z,6.90
2023-02-19T18:12:43.085Z,6.97
2023-02-19T18:15:14.694Z,6.93
2023-02-19T18:17:41.321Z,7.03
2023-02-19T18:20:08.402Z,7.17
2023-02-19T18:22:35.138Z,7.13
2023-02-19T18:25:01.658Z,6.95
2023-02-19T18:27:28.209Z,6.95
2023-02-19T18:29:56.254Z,7.03
2023-02-19T18:32:24.841Z,7.03
2023-02-19T18:34:56.702Z,7.08
2023-02-19T18:37:25.250Z,7.18
2023-02-19T18:39:53.166Z,7.23
2023-02-19T18:42:21.775Z,7.20
2023-02-19T18:44:49.661Z,7.24
2023-02-19T18:47:17.579Z,7.16
2023-02-19T18:49:51.249Z,7.16
2023-02-19T18:52:22.403Z,7.04
2023-02-19T18:54:50.676Z,7.03
2023-02-19T18:57:19.061Z,7.01
2023-02-19T18:59:45.820Z,6.83
2023-02-19T19:02:13.796Z,6.82
2023-02-19T19:04:41.605Z,6.80
2023-02-19T19:07:09.655Z,6.79
2023-02-19T19:09:36.624Z,6.71
2023-02-19T19:12:04.340Z,6.76
2023-02-19T19:14:30.915Z,6.71
2023-02-19T19:16:57.565Z,6.65
2023-02-19T19:19:24.346Z,6.77
2023-02-19T19:21:53.384Z,6.76
2023-02-19T19:24:21.395Z,6.85
2023-02-19T19:26:49.211Z,6.83
2023-02-19T19:29:18.407Z,6.68
2023-02-19T19:31:45.534Z,6.72
2023-02-19T19:34:12.552Z,6.72
2023-02-19T19:36:39.217Z,6.75
2023-02-19T19:39:06.947Z,6.68
2023-02-19T19:41:33.788Z,6.61
2023-02-19T19:44:07.547Z,6.62
2023-02-19T19:46:34.684Z,6.58
2023-02-19T19:49:01.377Z,6.53
2023-02-19T19:51:32.800Z,6.48
2023-02-19T19:53:59.696Z,6.44
2023-02-19T19:56:26.276Z,6.52
2023-02-19T19:58:52.903Z,6.49
2023-02-19T20:01:23.315Z,6.44
2023-02-19T20:03:51.127Z,6.48
2023-02-19T20:06:30.345Z,6.44
2023-02-19T20:08:57.826Z,6.48
2023-02-19T20:11:24.537Z,6.52
2023-02-19T20:13:51.209Z,6.55
2023-02-19T20:16:24.043Z,6.64
2023-02-19T20:18:50.641Z,6.58
2023-02-19T20:21:17.375Z,6.61
2023-02-19T20:23:43.910Z,6.59
2023-02-19T20:26:10.490Z,6.62
2023-02-19T20:28:37.811Z,6.65
2023-02-19T20:31:04.690Z,6.56
2023-02-19T20:33:31.338Z,6.39
2023-02-19T20:35:58.059Z,6.48
2023-02-19T20:38:24.568Z,6.46
2023-02-19T20:40:51.198Z,6.34
2023-02-19T20:43:17.791Z,6.35
2023-02-19T20:45:46.453Z,6.32
2023-02-19T20:48:15.931Z,6.32
2023-02-19T20:50:42.598Z,6.24
2023-02-19T20:53:10.479Z,6.13
2023-02-19T20:55:37.411Z,6.08
2023-02-19T20:58:04.134Z,6.13
2023-02-19T21:00:30.651Z,6.18
2023-02-19T21:02:57.209Z,6.18
2023-02-19T21:05:25.301Z,6.24
2023-02-19T21:07:51.851Z,6.18
2023-02-19T21:10:18.560Z,5.94
2023-02-19T21:12:45.113Z,5.81
2023-02-19T21:15:11.696Z,5.83
2023-02-19T21:17:38.249Z,5.91
2023-02-19T21:20:05.344Z,5.94
2023-02-19T21:22:31.879Z,5.89
2023-02-19T21:24:58.420Z,5.86
2023-02-19T21:27:25.045Z,5.96
2023-02-19T21:29:51.701Z,5.89
2023-02-19T21:32:19.583Z,5.97
2023-02-19T21:34:46.302Z,5.98
2023-02-19T21:37:12.965Z,5.98
2023-02-19T21:39:39.610Z,6.03
2023-02-19T21:42:06.150Z,6.04
2023-02-19T21:44:32.699Z,6.06
2023-02-19T21:46:59.264Z,6.14
2023-02-19T21:49:25.877Z,6.06
2023-02-19T21:51:53.788Z,6.13
2023-02-19T21:54:26.727Z,6.14
2023-02-19T21:56:54.360Z,6.08
2023-02-19T21:59:21.884Z,6.10
2023-02-19T22:01:50.557Z,6.11
2023-02-19T22:04:19.928Z,6.13
2023-02-19T22:06:47.311Z,6.14
2023-02-19T22:09:14.583Z,6.13
2023-02-19T22:11:41.205Z,6.03
2023-02-19T22:14:08.146Z,6.07
2023-02-19T22:16:34.976Z,5.96
2023-02-19T22:19:01.617Z,5.98
2023-02-19T22:21:32.593Z,5.98
2023-02-19T22:24:00.519Z,6.00
2023-02-19T22:26:30.519Z,5.91
2023-02-19T22:28:59.231Z,5.81
2023-02-19T22:31:27.504Z,5.81
2023-02-19T22:33:56.008Z,5.83
2023-02-19T22:36:25.923Z,5.87
2023-02-19T22:38:52.727Z,5.87
2023-02-19T22:41:20.817Z,5.97
2023-02-19T22:43:47.998Z,5.91
2023-02-19T22:46:17.537Z,6.00
2023-02-19T22:48:44.487Z,5.94
2023-02-19T22:51:13.202Z,5.86
2023-02-19T22:53:48.620Z,5.89
2023-02-19T22:56:16.952Z,5.97
2023-02-19T22:58:44.012Z,6.01
